sensor_id;sensor_type;location;lat;lon;timestamp;P1;durP1;ratioP1;P2;durP2;ratioP2
66272;SDS011;58450;52.150;4.466;2023-05-19T00:00:30;6.20;;;2.92;;
66272;SDS011;58450;52.150;4.466;2023-05-19T00:02:59;6.97;;;2.80;;
66272;SDS011;58450;52.150;4.466;2023-05-19T00:05:29;6.70;;;3.00;;
66272;SDS011;58450;52.150;4.466;2023-05-19T00:07:58;8.05;;;2.88;;
66272;SDS011;58450;52.150;4.466;2023-05-19T00:10:26;6.85;;;2.50;;
66272;SDS011;58450;52.150;4.466;2023-05-19T00:12:56;5.25;;;2.50;;
66272;SDS011;58450;52.150;4.466;2023-05-19T00:15:24;7.00;;;3.00;;
66272;SDS011;58450;52.150;4.466;2023-05-19T00:17:53;8.43;;;3.22;;
66272;SDS011;58450;52.150;4.466;2023-05-19T00:20:20;9.02;;;3.35;;
66272;SDS011;58450;52.150;4.466;2023-05-19T00:22:49;6.30;;;2.40;;
66272;SDS011;58450;52.150;4.466;2023-05-19T00:25:17;6.78;;;2.70;;
66272;SDS011;58450;52.150;4.466;2023-05-19T00:27:44;9.77;;;3.30;;
66272;SDS011;58450;52.150;4.466;2023-05-19T00:30:12;7.03;;;2.97;;
66272;SDS011;58450;52.150;4.466;2023-05-19T00:32:40;6.28;;;2.75;;
66272;SDS011;58450;52.150;4.466;2023-05-19T00:35:08;6.70;;;2.70;;
66272;SDS011;58450;52.150;4.466;2023-05-19T00:37:36;7.55;;;2.92;;
66272;SDS011;58450;52.150;4.466;2023-05-19T00:40:06;7.15;;;3.38;;
66272;SDS011;58450;52.150;4.466;2023-05-19T00:42:35;7.85;;;2.78;;
66272;SDS011;58450;52.150;4.466;2023-05-19T00:45:04;6.93;;;2.97;;
66272;SDS011;58450;52.150;4.466;2023-05-19T00:47:33;8.25;;;3.10;;
66272;SDS011;58450;52.150;4.466;2023-05-19T00:50:01;8.32;;;3.40;;
66272;SDS011;58450;52.150;4.466;2023-05-19T00:52:28;9.55;;;3.25;;
66272;SDS011;58450;52.150;4.466;2023-05-19T00:54:56;7.40;;;2.95;;
66272;SDS011;58450;52.150;4.466;2023-05-19T00:57:25;8.40;;;3.03;;
66272;SDS011;58450;52.150;4.466;2023-05-19T00:59:53;7.15;;;3.10;;
66272;SDS011;58450;52.150;4.466;2023-05-19T01:02:21;7.97;;;3.20;;
66272;SDS011;58450;52.150;4.466;2023-05-19T01:04:49;7.75;;;3.28;;
66272;SDS011;58450;52.150;4.466;2023-05-19T01:07:18;7.85;;;3.45;;
66272;SDS011;58450;52.150;4.466;2023-05-19T01:09:46;7.30;;;3.00;;
66272;SDS011;58450;52.150;4.466;2023-05-19T01:12:13;6.43;;;2.85;;
66272;SDS011;58450;52.150;4.466;2023-05-19T01:14:43;5.38;;;2.85;;
66272;SDS011;58450;52.150;4.466;2023-05-19T01:17:13;7.47;;;3.63;;
66272;SDS011;58450;52.150;4.466;2023-05-19T01:19:55;8.40;;;3.30;;
66272;SDS011;58450;52.150;4.466;2023-05-19T01:22:40;8.57;;;3.05;;
66272;SDS011;58450;52.150;4.466;2023-05-19T01:25:39;7.47;;;3.17;;
66272;SDS011;58450;52.150;4.466;2023-05-19T01:28:39;10.02;;;3.20;;
66272;SDS011;58450;52.150;4.466;2023-05-19T01:31:35;6.97;;;2.92;;
66272;SDS011;58450;52.150;4.466;2023-05-19T01:34:04;6.35;;;2.90;;
66272;SDS011;58450;52.150;4.466;2023-05-19T01:36:33;8.15;;;3.10;;
66272;SDS011;58450;52.150;4.466;2023-05-19T01:39:03;7.03;;;3.25;;
66272;SDS011;58450;52.150;4.466;2023-05-19T01:41:32;6.75;;;3.20;;
66272;SDS011;58450;52.150;4.466;2023-05-19T01:44:01;7.13;;;3.33;;
66272;SDS011;58450;52.150;4.466;2023-05-19T01:46:29;8.88;;;3.17;;
66272;SDS011;58450;52.150;4.466;2023-05-19T01:48:58;7.00;;;3.10;;
66272;SDS011;58450;52.150;4.466;2023-05-19T01:51:26;6.35;;;3.08;;
66272;SDS011;58450;52.150;4.466;2023-05-19T01:53:54;6.45;;;2.70;;
66272;SDS011;58450;52.150;4.466;2023-05-19T01:56:23;5.00;;;2.95;;
66272;SDS011;58450;52.150;4.466;2023-05-19T01:59:08;8.07;;;2.95;;
66272;SDS011;58450;52.150;4.466;2023-05-19T02:01:53;9.05;;;3.38;;
66272;SDS011;58450;52.150;4.466;2023-05-19T02:04:32;8.80;;;3.10;;
66272;SDS011;58450;52.150;4.466;2023-05-19T02:07:12;5.47;;;2.97;;
66272;SDS011;58450;52.150;4.466;2023-05-19T02:09:48;8.57;;;3.28;;
66272;SDS011;58450;52.150;4.466;2023-05-19T02:12:23;9.90;;;2.97;;
66272;SDS011;58450;52.150;4.466;2023-05-19T02:14:58;10.73;;;3.20;;
66272;SDS011;58450;52.150;4.466;2023-05-19T02:17:31;6.72;;;2.80;;
66272;SDS011;58450;52.150;4.466;2023-05-19T02:20:03;7.15;;;3.45;;
66272;SDS011;58450;52.150;4.466;2023-05-19T02:22:33;8.65;;;3.10;;
66272;SDS011;58450;52.150;4.466;2023-05-19T02:25:01;7.65;;;3.28;;
66272;SDS011;58450;52.150;4.466;2023-05-19T02:27:29;7.68;;;3.35;;
66272;SDS011;58450;52.150;4.466;2023-05-19T02:29:57;6.93;;;3.10;;
66272;SDS011;58450;52.150;4.466;2023-05-19T02:32:24;9.50;;;3.20;;
66272;SDS011;58450;52.150;4.466;2023-05-19T02:34:52;9.63;;;3.50;;
66272;SDS011;58450;52.150;4.466;2023-05-19T02:37:22;7.05;;;3.25;;
66272;SDS011;58450;52.150;4.466;2023-05-19T02:39:50;8.63;;;3.42;;
66272;SDS011;58450;52.150;4.466;2023-05-19T02:42:17;8.48;;;3.05;;
66272;SDS011;58450;52.150;4.466;2023-05-19T02:44:45;8.15;;;3.22;;
66272;SDS011;58450;52.150;4.466;2023-05-19T02:47:12;8.70;;;3.45;;
66272;SDS011;58450;52.150;4.466;2023-05-19T02:49:40;6.50;;;3.28;;
66272;SDS011;58450;52.150;4.466;2023-05-19T02:52:08;6.30;;;3.20;;
66272;SDS011;58450;52.150;4.466;2023-05-19T02:54:38;5.50;;;3.08;;
66272;SDS011;58450;52.150;4.466;2023-05-19T02:57:05;9.32;;;3.67;;
66272;SDS011;58450;52.150;4.466;2023-05-19T02:59:33;9.57;;;3.60;;
66272;SDS011;58450;52.150;4.466;2023-05-19T03:02:01;7.40;;;3.30;;
66272;SDS011;58450;52.150;4.466;2023-05-19T03:04:29;8.32;;;3.17;;
66272;SDS011;58450;52.150;4.466;2023-05-19T03:06:56;9.48;;;3.45;;
66272;SDS011;58450;52.150;4.466;2023-05-19T03:09:24;7.85;;;3.33;;
66272;SDS011;58450;52.150;4.466;2023-05-19T03:11:53;8.88;;;3.45;;
66272;SDS011;58450;52.150;4.466;2023-05-19T03:14:20;7.82;;;3.30;;
66272;SDS011;58450;52.150;4.466;2023-05-19T03:16:49;9.23;;;3.78;;
66272;SDS011;58450;52.150;4.466;2023-05-19T03:19:16;7.57;;;3.13;;
66272;SDS011;58450;52.150;4.466;2023-05-19T03:21:44;8.20;;;3.50;;
66272;SDS011;58450;52.150;4.466;2023-05-19T03:24:12;7.72;;;3.45;;
66272;SDS011;58450;52.150;4.466;2023-05-19T03:26:39;6.97;;;3.13;;
66272;SDS011;58450;52.150;4.466;2023-05-19T03:29:08;7.50;;;3.42;;
66272;SDS011;58450;52.150;4.466;2023-05-19T03:31:36;7.07;;;3.55;;
66272;SDS011;58450;52.150;4.466;2023-05-19T03:34:03;7.28;;;3.50;;
66272;SDS011;58450;52.150;4.466;2023-05-19T03:36:31;10.30;;;3.45;;
66272;SDS011;58450;52.150;4.466;2023-05-19T03:39:04;6.40;;;3.28;;
66272;SDS011;58450;52.150;4.466;2023-05-19T03:41:32;11.38;;;3.60;;
66272;SDS011;58450;52.150;4.466;2023-05-19T03:43:59;7.85;;;3.53;;
66272;SDS011;58450;52.150;4.466;2023-05-19T03:46:28;8.00;;;3.83;;
66272;SDS011;58450;52.150;4.466;2023-05-19T03:48:56;9.13;;;3.65;;
66272;SDS011;58450;52.150;4.466;2023-05-19T03:51:23;5.85;;;3.50;;
66272;SDS011;58450;52.150;4.466;2023-05-19T03:53:53;8.20;;;3.95;;
66272;SDS011;58450;52.150;4.466;2023-05-19T03:56:20;6.43;;;3.30;;
66272;SDS011;58450;52.150;4.466;2023-05-19T03:58:51;7.90;;;3.55;;
66272;SDS011;58450;52.150;4.466;2023-05-19T04:01:19;6.97;;;3.92;;
66272;SDS011;58450;52.150;4.466;2023-05-19T04:03:48;13.85;;;3.97;;
66272;SDS011;58450;52.150;4.466;2023-05-19T04:06:15;6.88;;;3.80;;
66272;SDS011;58450;52.150;4.466;2023-05-19T04:08:43;9.23;;;4.38;;
66272;SDS011;58450;52.150;4.466;2023-05-19T04:11:11;8.73;;;3.58;;
66272;SDS011;58450;52.150;4.466;2023-05-19T04:13:38;6.80;;;3.72;;
66272;SDS011;58450;52.150;4.466;2023-05-19T04:16:06;9.60;;;3.85;;
66272;SDS011;58450;52.150;4.466;2023-05-19T04:18:34;8.18;;;3.80;;
66272;SDS011;58450;52.150;4.466;2023-05-19T04:21:03;7.63;;;3.60;;
66272;SDS011;58450;52.150;4.466;2023-05-19T04:23:30;8.82;;;3.65;;
66272;SDS011;58450;52.150;4.466;2023-05-19T04:25:58;10.02;;;3.88;;
66272;SDS011;58450;52.150;4.466;2023-05-19T04:28:26;9.27;;;3.95;;
66272;SDS011;58450;52.150;4.466;2023-05-19T04:30:54;10.75;;;4.20;;
66272;SDS011;58450;52.150;4.466;2023-05-19T04:33:23;6.60;;;3.65;;
66272;SDS011;58450;52.150;4.466;2023-05-19T04:35:50;7.90;;;3.80;;
66272;SDS011;58450;52.150;4.466;2023-05-19T04:38:19;12.15;;;4.28;;
66272;SDS011;58450;52.150;4.466;2023-05-19T04:40:47;8.85;;;3.80;;
66272;SDS011;58450;52.150;4.466;2023-05-19T04:43:16;9.95;;;4.30;;
66272;SDS011;58450;52.150;4.466;2023-05-19T04:45:44;9.65;;;4.18;;
66272;SDS011;58450;52.150;4.466;2023-05-19T04:48:12;8.18;;;4.50;;
66272;SDS011;58450;52.150;4.466;2023-05-19T04:50:39;8.48;;;4.22;;
66272;SDS011;58450;52.150;4.466;2023-05-19T04:53:07;12.05;;;4.45;;
66272;SDS011;58450;52.150;4.466;2023-05-19T04:55:37;10.50;;;4.10;;
66272;SDS011;58450;52.150;4.466;2023-05-19T04:58:05;5.50;;;3.47;;
66272;SDS011;58450;52.150;4.466;2023-05-19T05:00:32;7.80;;;3.70;;
66272;SDS011;58450;52.150;4.466;2023-05-19T05:03:01;8.10;;;3.83;;
66272;SDS011;58450;52.150;4.466;2023-05-19T05:05:29;6.40;;;3.58;;
66272;SDS011;58450;52.150;4.466;2023-05-19T05:07:57;8.18;;;3.47;;
66272;SDS011;58450;52.150;4.466;2023-05-19T05:10:25;5.95;;;3.40;;
66272;SDS011;58450;52.150;4.466;2023-05-19T05:12:54;8.48;;;3.58;;
66272;SDS011;58450;52.150;4.466;2023-05-19T05:15:22;8.65;;;3.55;;
66272;SDS011;58450;52.150;4.466;2023-05-19T05:17:53;9.45;;;4.05;;
66272;SDS011;58450;52.150;4.466;2023-05-19T05:20:22;7.85;;;3.70;;
66272;SDS011;58450;52.150;4.466;2023-05-19T05:22:50;10.15;;;4.20;;
66272;SDS011;58450;52.150;4.466;2023-05-19T05:25:19;10.45;;;3.97;;
66272;SDS011;58450;52.150;4.466;2023-05-19T05:27:47;8.27;;;3.80;;
66272;SDS011;58450;52.150;4.466;2023-05-19T05:30:16;8.52;;;3.75;;
66272;SDS011;58450;52.150;4.466;2023-05-19T05:32:44;8.00;;;3.97;;
66272;SDS011;58450;52.150;4.466;2023-05-19T05:35:12;10.05;;;3.80;;
66272;SDS011;58450;52.150;4.466;2023-05-19T05:37:39;10.20;;;3.72;;
66272;SDS011;58450;52.150;4.466;2023-05-19T05:40:07;9.13;;;3.85;;
66272;SDS011;58450;52.150;4.466;2023-05-19T05:42:35;7.03;;;3.55;;
66272;SDS011;58450;52.150;4.466;2023-05-19T05:45:03;8.38;;;4.05;;
66272;SDS011;58450;52.150;4.466;2023-05-19T05:47:34;6.75;;;3.30;;
66272;SDS011;58450;52.150;4.466;2023-05-19T05:50:04;9.20;;;3.80;;
66272;SDS011;58450;52.150;4.466;2023-05-19T05:52:34;7.35;;;4.10;;
66272;SDS011;58450;52.150;4.466;2023-05-19T05:55:04;6.93;;;3.70;;
66272;SDS011;58450;52.150;4.466;2023-05-19T05:57:33;7.55;;;3.60;;
66272;SDS011;58450;52.150;4.466;2023-05-19T06:00:01;7.57;;;3.83;;
66272;SDS011;58450;52.150;4.466;2023-05-19T06:02:36;9.15;;;3.90;;
66272;SDS011;58450;52.150;4.466;2023-05-19T06:05:03;9.05;;;3.95;;
66272;SDS011;58450;52.150;4.466;2023-05-19T06:07:31;7.93;;;3.80;;
66272;SDS011;58450;52.150;4.466;2023-05-19T06:09:59;7.15;;;3.80;;
66272;SDS011;58450;52.150;4.466;2023-05-19T06:12:26;9.20;;;3.75;;
66272;SDS011;58450;52.150;4.466;2023-05-19T06:14:54;8.43;;;3.40;;
66272;SDS011;58450;52.150;4.466;2023-05-19T06:17:21;7.72;;;3.80;;
66272;SDS011;58450;52.150;4.466;2023-05-19T06:19:50;8.85;;;4.15;;
66272;SDS011;58450;52.150;4.466;2023-05-19T06:22:18;8.23;;;3.78;;
66272;SDS011;58450;52.150;4.466;2023-05-19T06:24:45;7.38;;;3.33;;
66272;SDS011;58450;52.150;4.466;2023-05-19T06:27:13;6.35;;;3.40;;
66272;SDS011;58450;52.150;4.466;2023-05-19T06:29:40;7.68;;;3.22;;
66272;SDS011;58450;52.150;4.466;2023-05-19T06:32:08;6.30;;;3.30;;
66272;SDS011;58450;52.150;4.466;2023-05-19T06:34:35;8.20;;;3.42;;
66272;SDS011;58450;52.150;4.466;2023-05-19T06:37:06;7.22;;;3.53;;
66272;SDS011;58450;52.150;4.466;2023-05-19T06:39:34;7.75;;;3.08;;
66272;SDS011;58450;52.150;4.466;2023-05-19T06:42:01;7.13;;;3.20;;
66272;SDS011;58450;52.150;4.466;2023-05-19T06:44:29;7.28;;;3.03;;
66272;SDS011;58450;52.150;4.466;2023-05-19T06:46:56;7.75;;;3.40;;
66272;SDS011;58450;52.150;4.466;2023-05-19T06:49:24;7.30;;;3.38;;
66272;SDS011;58450;52.150;4.466;2023-05-19T06:51:54;9.00;;;3.72;;
66272;SDS011;58450;52.150;4.466;2023-05-19T06:54:22;6.50;;;3.15;;
66272;SDS011;58450;52.150;4.466;2023-05-19T06:56:50;9.73;;;3.17;;
66272;SDS011;58450;52.150;4.466;2023-05-19T06:59:17;6.63;;;2.90;;
66272;SDS011;58450;52.150;4.466;2023-05-19T07:01:47;5.15;;;2.83;;
66272;SDS011;58450;52.150;4.466;2023-05-19T07:04:14;5.65;;;3.00;;
66272;SDS011;58450;52.150;4.466;2023-05-19T07:06:42;6.05;;;2.88;;
66272;SDS011;58450;52.150;4.466;2023-05-19T07:09:09;7.53;;;3.00;;
66272;SDS011;58450;52.150;4.466;2023-05-19T07:11:38;5.28;;;2.58;;
66272;SDS011;58450;52.150;4.466;2023-05-19T07:14:05;5.68;;;2.80;;
66272;SDS011;58450;52.150;4.466;2023-05-19T07:16:33;7.28;;;3.20;;
66272;SDS011;58450;52.150;4.466;2023-05-19T07:19:00;6.70;;;2.58;;
66272;SDS011;58450;52.150;4.466;2023-05-19T07:21:28;6.85;;;2.60;;
66272;SDS011;58450;52.150;4.466;2023-05-19T07:23:55;5.65;;;2.47;;
66272;SDS011;58450;52.150;4.466;2023-05-19T07:26:23;6.80;;;2.22;;
66272;SDS011;58450;52.150;4.466;2023-05-19T07:28:52;7.07;;;2.22;;
66272;SDS011;58450;52.150;4.466;2023-05-19T07:31:20;4.70;;;2.30;;
66272;SDS011;58450;52.150;4.466;2023-05-19T07:33:47;5.55;;;2.20;;
66272;SDS011;58450;52.150;4.466;2023-05-19T07:36:15;7.15;;;2.58;;
66272;SDS011;58450;52.150;4.466;2023-05-19T07:38:42;5.65;;;2.30;;
66272;SDS011;58450;52.150;4.466;2023-05-19T07:41:11;6.70;;;2.25;;
66272;SDS011;58450;52.150;4.466;2023-05-19T07:43:39;6.38;;;2.20;;
66272;SDS011;58450;52.150;4.466;2023-05-19T07:46:07;5.93;;;2.03;;
66272;SDS011;58450;52.150;4.466;2023-05-19T07:48:35;5.22;;;2.13;;
66272;SDS011;58450;52.150;4.466;2023-05-19T07:51:03;5.57;;;1.88;;
66272;SDS011;58450;52.150;4.466;2023-05-19T07:53:31;4.55;;;1.80;;
66272;SDS011;58450;52.150;4.466;2023-05-19T07:55:58;4.15;;;1.85;;
66272;SDS011;58450;52.150;4.466;2023-05-19T07:58:26;4.22;;;1.67;;
66272;SDS011;58450;52.150;4.466;2023-05-19T08:00:55;6.35;;;2.22;;
66272;SDS011;58450;52.150;4.466;2023-05-19T08:03:25;8.15;;;2.15;;
66272;SDS011;58450;52.150;4.466;2023-05-19T08:05:52;5.35;;;2.47;;
66272;SDS011;58450;52.150;4.466;2023-05-19T08:08:20;5.80;;;2.20;;
66272;SDS011;58450;52.150;4.466;2023-05-19T08:10:47;4.43;;;1.95;;
66272;SDS011;58450;52.150;4.466;2023-05-19T08:13:15;8.02;;;2.10;;
66272;SDS011;58450;52.150;4.466;2023-05-19T08:15:43;5.50;;;1.88;;
66272;SDS011;58450;52.150;4.466;2023-05-19T08:18:10;5.75;;;2.20;;
66272;SDS011;58450;52.150;4.466;2023-05-19T08:20:39;5.70;;;2.22;;
66272;SDS011;58450;52.150;4.466;2023-05-19T08:23:07;6.13;;;2.17;;
66272;SDS011;58450;52.150;4.466;2023-05-19T08:25:34;6.22;;;1.83;;
66272;SDS011;58450;52.150;4.466;2023-05-19T08:28:02;5.10;;;2.05;;
66272;SDS011;58450;52.150;4.466;2023-05-19T08:30:29;3.92;;;1.77;;
66272;SDS011;58450;52.150;4.466;2023-05-19T08:32:57;4.85;;;1.70;;
66272;SDS011;58450;52.150;4.466;2023-05-19T08:35:24;6.28;;;1.80;;
66272;SDS011;58450;52.150;4.466;2023-05-19T08:37:53;3.28;;;1.60;;
66272;SDS011;58450;52.150;4.466;2023-05-19T08:40:21;5.15;;;1.80;;
66272;SDS011;58450;52.150;4.466;2023-05-19T08:42:49;4.75;;;1.58;;
66272;SDS011;58450;52.150;4.466;2023-05-19T08:45:17;4.20;;;1.63;;
66272;SDS011;58450;52.150;4.466;2023-05-19T08:47:44;4.47;;;1.67;;
66272;SDS011;58450;52.150;4.466;2023-05-19T08:50:14;4.90;;;1.48;;
66272;SDS011;58450;52.150;4.466;2023-05-19T08:52:50;4.40;;;1.58;;
66272;SDS011;58450;52.150;4.466;2023-05-19T08:55:26;3.08;;;1.63;;
66272;SDS011;58450;52.150;4.466;2023-05-19T08:57:59;4.13;;;1.50;;
66272;SDS011;58450;52.150;4.466;2023-05-19T09:00:29;4.93;;;1.40;;
66272;SDS011;58450;52.150;4.466;2023-05-19T09:02:58;4.85;;;1.67;;
66272;SDS011;58450;52.150;4.466;2023-05-19T09:05:28;3.80;;;1.40;;
66272;SDS011;58450;52.150;4.466;2023-05-19T09:07:56;5.07;;;1.42;;
66272;SDS011;58450;52.150;4.466;2023-05-19T09:10:28;4.20;;;1.45;;
66272;SDS011;58450;52.150;4.466;2023-05-19T09:12:56;5.43;;;1.63;;
66272;SDS011;58450;52.150;4.466;2023-05-19T09:15:25;5.93;;;1.67;;
66272;SDS011;58450;52.150;4.466;2023-05-19T09:18:02;5.18;;;1.63;;
66272;SDS011;58450;52.150;4.466;2023-05-19T09:20:35;4.53;;;1.30;;
66272;SDS011;58450;52.150;4.466;2023-05-19T09:23:05;7.72;;;1.55;;
66272;SDS011;58450;52.150;4.466;2023-05-19T09:25:35;5.30;;;1.50;;
66272;SDS011;58450;52.150;4.466;2023-05-19T09:28:02;5.20;;;1.25;;
66272;SDS011;58450;52.150;4.466;2023-05-19T09:30:31;3.10;;;1.23;;
66272;SDS011;58450;52.150;4.466;2023-05-19T09:32:59;5.25;;;1.58;;
66272;SDS011;58450;52.150;4.466;2023-05-19T09:35:27;4.55;;;1.25;;
66272;SDS011;58450;52.150;4.466;2023-05-19T09:37:54;5.80;;;1.35;;
66272;SDS011;58450;52.150;4.466;2023-05-19T09:40:22;5.50;;;1.63;;
66272;SDS011;58450;52.150;4.466;2023-05-19T09:42:55;3.80;;;1.17;;
66272;SDS011;58450;52.150;4.466;2023-05-19T09:45:25;5.13;;;1.35;;
66272;SDS011;58450;52.150;4.466;2023-05-19T09:47:54;2.97;;;1.17;;
66272;SDS011;58450;52.150;4.466;2023-05-19T09:50:22;5.20;;;1.42;;
66272;SDS011;58450;52.150;4.466;2023-05-19T09:52:50;3.60;;;1.40;;
66272;SDS011;58450;52.150;4.466;2023-05-19T09:55:18;5.63;;;1.50;;
66272;SDS011;58450;52.150;4.466;2023-05-19T09:57:47;5.13;;;1.63;;
66272;SDS011;58450;52.150;4.466;2023-05-19T10:00:18;4.38;;;1.40;;
66272;SDS011;58450;52.150;4.466;2023-05-19T10:02:46;3.78;;;1.20;;
66272;SDS011;58450;52.150;4.466;2023-05-19T10:05:16;3.92;;;1.30;;
66272;SDS011;58450;52.150;4.466;2023-05-19T10:07:45;4.70;;;1.48;;
66272;SDS011;58450;52.150;4.466;2023-05-19T10:10:17;3.33;;;1.38;;
66272;SDS011;58450;52.150;4.466;2023-05-19T10:12:46;3.60;;;1.40;;
66272;SDS011;58450;52.150;4.466;2023-05-19T10:15:14;3.88;;;1.40;;
66272;SDS011;58450;52.150;4.466;2023-05-19T10:17:45;4.95;;;1.45;;
66272;SDS011;58450;52.150;4.466;2023-05-19T10:20:13;3.88;;;1.40;;
66272;SDS011;58450;52.150;4.466;2023-05-19T10:22:43;4.93;;;1.58;;
66272;SDS011;58450;52.150;4.466;2023-05-19T10:25:12;4.13;;;1.30;;
66272;SDS011;58450;52.150;4.466;2023-05-19T10:27:43;4.93;;;1.50;;
66272;SDS011;58450;52.150;4.466;2023-05-19T10:30:28;3.60;;;1.58;;
66272;SDS011;58450;52.150;4.466;2023-05-19T10:33:02;5.97;;;1.80;;
66272;SDS011;58450;52.150;4.466;2023-05-19T10:35:39;3.90;;;1.23;;
66272;SDS011;58450;52.150;4.466;2023-05-19T10:38:26;3.35;;;1.30;;
66272;SDS011;58450;52.150;4.466;2023-05-19T10:41:06;4.00;;;1.38;;
66272;SDS011;58450;52.150;4.466;2023-05-19T10:43:43;4.22;;;1.35;;
66272;SDS011;58450;52.150;4.466;2023-05-19T10:46:23;5.93;;;1.65;;
66272;SDS011;58450;52.150;4.466;2023-05-19T10:48:53;5.38;;;1.52;;
66272;SDS011;58450;52.150;4.466;2023-05-19T10:51:24;5.60;;;1.50;;
66272;SDS011;58450;52.150;4.466;2023-05-19T10:53:57;2.97;;;1.45;;
66272;SDS011;58450;52.150;4.466;2023-05-19T10:56:27;3.83;;;1.10;;
66272;SDS011;58450;52.150;4.466;2023-05-19T10:58:58;4.47;;;1.55;;
66272;SDS011;58450;52.150;4.466;2023-05-19T11:01:31;4.70;;;1.20;;
66272;SDS011;58450;52.150;4.466;2023-05-19T11:04:05;3.53;;;1.35;;
66272;SDS011;58450;52.150;4.466;2023-05-19T11:06:36;4.85;;;1.75;;
66272;SDS011;58450;52.150;4.466;2023-05-19T11:09:09;5.40;;;1.20;;
66272;SDS011;58450;52.150;4.466;2023-05-19T11:11:43;3.35;;;1.30;;
66272;SDS011;58450;52.150;4.466;2023-05-19T11:14:14;4.93;;;1.55;;
66272;SDS011;58450;52.150;4.466;2023-05-19T11:16:49;4.50;;;1.40;;
66272;SDS011;58450;52.150;4.466;2023-05-19T11:19:19;5.10;;;1.40;;
66272;SDS011;58450;52.150;4.466;2023-05-19T11:21:53;4.47;;;1.40;;
66272;SDS011;58450;52.150;4.466;2023-05-19T11:24:38;3.92;;;1.30;;
66272;SDS011;58450;52.150;4.466;2023-05-19T11:27:17;4.85;;;1.40;;
66272;SDS011;58450;52.150;4.466;2023-05-19T11:29:47;5.28;;;1.40;;
66272;SDS011;58450;52.150;4.466;2023-05-19T11:32:18;3.63;;;1.45;;
66272;SDS011;58450;52.150;4.466;2023-05-19T11:34:47;4.97;;;1.60;;
66272;SDS011;58450;52.150;4.466;2023-05-19T11:37:15;4.78;;;1.48;;
66272;SDS011;58450;52.150;4.466;2023-05-19T11:39:44;7.07;;;1.58;;
66272;SDS011;58450;52.150;4.466;2023-05-19T11:42:12;4.43;;;1.52;;
66272;SDS011;58450;52.150;4.466;2023-05-19T11:44:41;4.43;;;1.48;;
66272;SDS011;58450;52.150;4.466;2023-05-19T11:47:11;6.32;;;1.67;;
66272;SDS011;58450;52.150;4.466;2023-05-19T11:49:43;3.63;;;1.30;;
66272;SDS011;58450;52.150;4.466;2023-05-19T11:52:11;3.20;;;1.25;;
66272;SDS011;58450;52.150;4.466;2023-05-19T11:54:39;3.78;;;1.50;;
66272;SDS011;58450;52.150;4.466;2023-05-19T11:57:07;4.00;;;1.40;;
66272;SDS011;58450;52.150;4.466;2023-05-19T11:59:36;3.65;;;1.50;;
66272;SDS011;58450;52.150;4.466;2023-05-19T12:02:15;2.50;;;1.33;;
66272;SDS011;58450;52.150;4.466;2023-05-19T12:04:46;3.75;;;1.50;;
66272;SDS011;58450;52.150;4.466;2023-05-19T12:07:15;4.38;;;1.50;;
66272;SDS011;58450;52.150;4.466;2023-05-19T12:09:45;4.05;;;1.60;;
66272;SDS011;58450;52.150;4.466;2023-05-19T12:12:13;2.90;;;1.17;;
66272;SDS011;58450;52.150;4.466;2023-05-19T12:14:42;4.88;;;1.60;;
66272;SDS011;58450;52.150;4.466;2023-05-19T12:17:10;4.80;;;1.50;;
66272;SDS011;58450;52.150;4.466;2023-05-19T12:19:39;4.55;;;1.58;;
66272;SDS011;58450;52.150;4.466;2023-05-19T12:22:10;4.30;;;1.50;;
66272;SDS011;58450;52.150;4.466;2023-05-19T12:24:39;5.45;;;1.60;;
66272;SDS011;58450;52.150;4.466;2023-05-19T12:27:09;5.45;;;1.80;;
66272;SDS011;58450;52.150;4.466;2023-05-19T12:29:38;4.25;;;1.40;;
66272;SDS011;58450;52.150;4.466;2023-05-19T12:32:06;4.22;;;1.70;;
66272;SDS011;58450;52.150;4.466;2023-05-19T12:34:35;3.30;;;1.50;;
66272;SDS011;58450;52.150;4.466;2023-05-19T12:37:03;7.28;;;1.60;;
66272;SDS011;58450;52.150;4.466;2023-05-19T12:39:33;3.70;;;1.30;;
66272;SDS011;58450;52.150;4.466;2023-05-19T12:42:01;3.90;;;1.30;;
66272;SDS011;58450;52.150;4.466;2023-05-19T12:44:29;3.92;;;1.50;;
66272;SDS011;58450;52.150;4.466;2023-05-19T12:46:57;4.53;;;1.60;;
66272;SDS011;58450;52.150;4.466;2023-05-19T12:49:25;4.18;;;1.40;;
66272;SDS011;58450;52.150;4.466;2023-05-19T12:51:53;7.95;;;1.90;;
66272;SDS011;58450;52.150;4.466;2023-05-19T12:54:20;5.32;;;1.58;;
66272;SDS011;58450;52.150;4.466;2023-05-19T12:56:50;3.38;;;1.13;;
66272;SDS011;58450;52.150;4.466;2023-05-19T12:59:22;4.10;;;1.50;;
66272;SDS011;58450;52.150;4.466;2023-05-19T13:01:54;5.32;;;1.88;;
66272;SDS011;58450;52.150;4.466;2023-05-19T13:04:23;3.60;;;1.40;;
66272;SDS011;58450;52.150;4.466;2023-05-19T13:06:50;6.03;;;1.60;;
66272;SDS011;58450;52.150;4.466;2023-05-19T13:09:18;5.40;;;1.40;;
66272;SDS011;58450;52.150;4.466;2023-05-19T13:11:46;5.63;;;1.70;;
66272;SDS011;58450;52.150;4.466;2023-05-19T13:14:18;5.03;;;1.42;;
66272;SDS011;58450;52.150;4.466;2023-05-19T13:16:46;5.22;;;1.55;;
66272;SDS011;58450;52.150;4.466;2023-05-19T13:19:14;6.03;;;1.73;;
66272;SDS011;58450;52.150;4.466;2023-05-19T13:21:44;4.25;;;1.65;;
66272;SDS011;58450;52.150;4.466;2023-05-19T13:24:12;5.60;;;1.58;;
66272;SDS011;58450;52.150;4.466;2023-05-19T13:26:40;4.18;;;1.30;;
66272;SDS011;58450;52.150;4.466;2023-05-19T13:29:08;4.97;;;1.50;;
66272;SDS011;58450;52.150;4.466;2023-05-19T13:31:38;4.53;;;1.40;;
66272;SDS011;58450;52.150;4.466;2023-05-19T13:34:05;5.15;;;1.52;;
66272;SDS011;58450;52.150;4.466;2023-05-19T13:36:33;4.03;;;1.45;;
66272;SDS011;58450;52.150;4.466;2023-05-19T13:39:01;3.83;;;1.50;;
66272;SDS011;58450;52.150;4.466;2023-05-19T13:41:28;3.72;;;1.45;;
66272;SDS011;58450;52.150;4.466;2023-05-19T13:43:57;2.72;;;1.30;;
66272;SDS011;58450;52.150;4.466;2023-05-19T13:46:25;5.60;;;1.70;;
66272;SDS011;58450;52.150;4.466;2023-05-19T13:48:53;4.75;;;1.70;;
66272;SDS011;58450;52.150;4.466;2023-05-19T13:51:21;4.07;;;1.63;;
66272;SDS011;58450;52.150;4.466;2023-05-19T13:53:49;3.05;;;1.30;;
66272;SDS011;58450;52.150;4.466;2023-05-19T13:56:16;3.95;;;1.40;;
66272;SDS011;58450;52.150;4.466;2023-05-19T13:58:44;4.68;;;1.40;;
66272;SDS011;58450;52.150;4.466;2023-05-19T14:01:11;4.13;;;1.35;;
66272;SDS011;58450;52.150;4.466;2023-05-19T14:03:39;4.35;;;1.45;;
66272;SDS011;58450;52.150;4.466;2023-05-19T14:06:07;4.63;;;1.35;;
66272;SDS011;58450;52.150;4.466;2023-05-19T14:08:35;4.65;;;1.50;;
66272;SDS011;58450;52.150;4.466;2023-05-19T14:11:02;5.63;;;1.63;;
66272;SDS011;58450;52.150;4.466;2023-05-19T14:13:30;5.22;;;1.70;;
66272;SDS011;58450;52.150;4.466;2023-05-19T14:15:57;5.20;;;1.48;;
66272;SDS011;58450;52.150;4.466;2023-05-19T14:18:25;5.30;;;1.77;;
66272;SDS011;58450;52.150;4.466;2023-05-19T14:20:53;5.28;;;1.60;;
66272;SDS011;58450;52.150;4.466;2023-05-19T14:23:22;4.22;;;1.73;;
66272;SDS011;58450;52.150;4.466;2023-05-19T14:25:50;4.95;;;1.70;;
66272;SDS011;58450;52.150;4.466;2023-05-19T14:28:17;3.95;;;1.55;;
66272;SDS011;58450;52.150;4.466;2023-05-19T14:30:45;4.03;;;1.55;;
66272;SDS011;58450;52.150;4.466;2023-05-19T14:33:13;5.60;;;1.90;;
66272;SDS011;58450;52.150;4.466;2023-05-19T14:35:41;5.65;;;1.58;;
66272;SDS011;58450;52.150;4.466;2023-05-19T14:38:08;6.18;;;2.20;;
66272;SDS011;58450;52.150;4.466;2023-05-19T14:40:37;3.97;;;1.65;;
66272;SDS011;58450;52.150;4.466;2023-05-19T14:43:06;6.20;;;1.85;;
66272;SDS011;58450;52.150;4.466;2023-05-19T14:45:34;6.55;;;2.00;;
66272;SDS011;58450;52.150;4.466;2023-05-19T14:48:01;6.90;;;1.80;;
66272;SDS011;58450;52.150;4.466;2023-05-19T14:50:29;4.13;;;1.70;;
66272;SDS011;58450;52.150;4.466;2023-05-19T14:52:56;3.80;;;1.50;;
66272;SDS011;58450;52.150;4.466;2023-05-19T14:55:24;8.70;;;1.90;;
66272;SDS011;58450;52.150;4.466;2023-05-19T14:57:53;5.97;;;1.70;;
66272;SDS011;58450;52.150;4.466;2023-05-19T15:00:20;6.47;;;1.60;;